createdAt,value
2019-04-14T00:02:42.429Z,27.57
2019-04-14T00:05:47.709Z,31.43
2019-04-14T00:08:52.233Z,27.13
2019-04-14T00:11:56.926Z,30.23
2019-04-14T00:15:00.605Z,28.93
2019-04-14T00:18:05.352Z,31.47
2019-04-14T00:21:09.465Z,27.63
2019-04-14T00:24:13.854Z,31.80
2019-04-14T00:27:17.546Z,29.03
2019-04-14T00:30:23.065Z,31.97
2019-04-14T00:33:28.242Z,29.07
2019-04-14T00:36:48.397Z,30.10
2019-04-14T00:39:53.510Z,30.57
2019-04-14T00:42:58.590Z,32.23
2019-04-14T00:46:04.336Z,31.07
2019-04-14T00:49:09.194Z,30.17
2019-04-14T00:52:12.999Z,27.17
2019-04-14T00:55:16.474Z,28.97
2019-04-14T00:58:19.921Z,30.53
2019-04-14T01:01:24.395Z,28.13
2019-04-14T01:04:28.018Z,29.30
2019-04-14T01:07:32.633Z,28.23
2019-04-14T01:10:36.787Z,26.20
2019-04-14T01:13:40.381Z,28.97
2019-04-14T01:16:45.102Z,29.10
2019-04-14T01:19:48.663Z,31.07
2019-04-14T01:22:53.177Z,29.90
2019-04-14T01:25:56.813Z,27.40
2019-04-14T01:29:01.389Z,32.03
2019-04-14T01:32:05.031Z,29.43
2019-04-14T01:35:09.648Z,31.40
2019-04-14T01:38:13.246Z,29.03
2019-04-14T01:41:17.137Z,30.00
2019-04-14T01:44:20.644Z,26.77
2019-04-14T01:47:24.873Z,28.10
2019-04-14T01:50:32.737Z,33.03
2019-04-14T01:53:40.507Z,29.23
2019-04-14T01:56:58.131Z,29.10
2019-04-14T02:00:22.746Z,30.87
2019-04-14T02:03:26.376Z,30.40
2019-04-14T02:06:31.002Z,27.60
2019-04-14T02:09:35.762Z,27.23
2019-04-14T02:12:39.485Z,27.73
2019-04-14T02:15:44.166Z,29.57
2019-04-14T02:18:50.629Z,27.10
2019-04-14T02:21:54.012Z,28.23
2019-04-14T02:24:57.694Z,25.97
2019-04-14T02:28:02.220Z,28.87
2019-04-14T02:31:18.017Z,26.97
2019-04-14T02:34:41.653Z,29.93
2019-04-14T02:37:44.774Z,29.07
2019-04-14T02:40:53.289Z,29.73
2019-04-14T02:47:12.820Z,29.60
2019-04-14T02:53:07.920Z,29.50
2019-04-14T02:56:16.369Z,25.53
2019-04-14T02:59:36.782Z,28.90
2019-04-14T03:02:40.875Z,25.73
2019-04-14T03:05:26.494Z,26.63
2019-04-14T03:08:52.102Z,26.57
2019-04-14T03:11:44.343Z,27.63
2019-04-14T03:14:47.746Z,31.50
2019-04-14T03:21:15.892Z,27.37
2019-04-14T03:24:32.739Z,29.27
2019-04-14T03:27:50.550Z,27.87
2019-04-14T03:34:21.399Z,30.27
2019-04-14T03:37:39.623Z,29.07
2019-04-14T03:40:18.327Z,29.40
2019-04-14T03:43:24.486Z,30.77
2019-04-14T03:49:40.674Z,27.57
2019-04-14T03:52:53.228Z,27.90
2019-04-14T03:55:54.424Z,29.37
2019-04-14T03:58:51.862Z,29.17
2019-04-14T04:01:56.453Z,30.23
2019-04-14T04:05:00.194Z,28.13
2019-04-14T04:08:04.765Z,29.80
2019-04-14T04:11:08.595Z,29.73
2019-04-14T04:14:12.066Z,28.20
2019-04-14T04:17:36.287Z,28.77
2019-04-14T04:20:50.547Z,27.10
2019-04-14T04:23:59.677Z,32.80
2019-04-14T04:27:07.517Z,25.40
2019-04-14T04:30:12.764Z,26.53
2019-04-14T04:33:20.583Z,28.27
2019-04-14T04:36:42.166Z,24.50
2019-04-14T04:39:47.578Z,31.33
2019-04-14T04:42:51.091Z,29.73
2019-04-14T04:45:55.878Z,28.00
2019-04-14T04:49:08.265Z,27.57
2019-04-14T04:52:04.778Z,28.83
2019-04-14T04:55:08.884Z,24.13
2019-04-14T04:58:12.997Z,24.57
2019-04-14T05:01:16.745Z,25.93
2019-04-14T05:04:20.410Z,28.27
2019-04-14T05:07:25.146Z,24.63
2019-04-14T05:10:30.670Z,23.67
2019-04-14T05:13:36.150Z,23.07
2019-04-14T05:16:39.967Z,27.17
2019-04-14T05:19:43.610Z,26.27
2019-04-14T05:22:47.168Z,24.27
2019-04-14T05:25:51.673Z,21.70
2019-04-14T05:28:55.363Z,22.93
2019-04-14T05:31:59.925Z,22.37
2019-04-14T05:35:05.213Z,22.70
2019-04-14T05:38:08.766Z,22.20
2019-04-14T05:41:12.209Z,19.07
2019-04-14T05:44:16.465Z,19.53
2019-04-14T05:47:20.026Z,17.03
2019-04-14T05:50:23.471Z,15.00
2019-04-14T05:53:26.945Z,16.73
2019-04-14T05:56:31.650Z,17.03
2019-04-14T05:59:35.547Z,15.93
2019-04-14T06:02:39.946Z,14.67
2019-04-14T06:05:43.538Z,13.40
2019-04-14T06:08:47.001Z,15.73
2019-04-14T06:11:50.439Z,13.47
2019-04-14T06:14:53.969Z,12.67
2019-04-14T06:17:57.438Z,14.70
2019-04-14T06:21:00.910Z,13.93
2019-04-14T06:24:04.361Z,13.47
2019-04-14T06:27:07.837Z,13.23
2019-04-14T06:30:21.833Z,12.43
2019-04-14T06:33:26.913Z,13.93
2019-04-14T06:36:38.224Z,13.47
2019-04-14T06:39:49.482Z,13.27
2019-04-14T06:42:52.939Z,14.27
2019-04-14T06:45:56.417Z,12.33
2019-04-14T06:48:59.891Z,15.87
2019-04-14T06:52:03.362Z,12.80
2019-04-14T06:55:06.793Z,13.43
2019-04-14T06:58:10.297Z,13.20
2019-04-14T07:01:13.742Z,13.20
2019-04-14T07:04:17.214Z,13.43
2019-04-14T07:07:20.683Z,12.60
2019-04-14T07:10:24.157Z,12.13
2019-04-14T07:13:27.609Z,16.67
2019-04-14T07:16:31.146Z,12.47
2019-04-14T07:19:34.601Z,12.10
2019-04-14T07:22:38.095Z,12.10
2019-04-14T07:25:41.603Z,13.73
2019-04-14T07:28:56.217Z,12.80
2019-04-14T07:32:08.351Z,14.53
2019-04-14T07:35:19.477Z,12.93
2019-04-14T07:38:24.564Z,13.37
2019-04-14T07:41:32.415Z,14.77
2019-04-14T07:44:52.791Z,12.80
2019-04-14T07:48:03.418Z,13.27
2019-04-14T07:51:30.270Z,16.57
2019-04-14T07:54:47.322Z,13.73
2019-04-14T07:57:55.082Z,13.83
2019-04-14T08:01:02.897Z,14.93
2019-04-14T08:04:13.731Z,13.07
2019-04-14T08:07:17.206Z,13.27
2019-04-14T08:10:20.658Z,15.07
2019-04-14T08:13:24.295Z,15.33
2019-04-14T08:16:27.761Z,13.73
2019-04-14T08:19:31.247Z,17.93
2019-04-14T08:22:34.765Z,15.53
2019-04-14T08:25:38.441Z,16.87
2019-04-14T08:28:41.881Z,16.80
2019-04-14T08:31:45.354Z,15.87
2019-04-14T08:34:48.841Z,16.30
2019-04-14T08:37:52.274Z,18.70
2019-04-14T08:40:55.746Z,17.53
2019-04-14T08:44:00.860Z,17.00
2019-04-14T08:47:05.947Z,18.10
2019-04-14T08:50:23.342Z,22.03
2019-04-14T08:53:46.804Z,16.47
2019-04-14T08:56:51.889Z,19.20
2019-04-14T08:59:57.094Z,15.90
2019-04-14T09:03:14.415Z,17.70
2019-04-14T09:06:19.884Z,16.47
2019-04-14T09:09:25.001Z,16.50
2019-04-14T09:12:30.093Z,16.87
2019-04-14T09:15:33.561Z,22.97
2019-04-14T09:18:37.038Z,17.40
2019-04-14T09:21:40.487Z,18.87
2019-04-14T09:24:43.951Z,20.33
2019-04-14T09:27:47.418Z,20.00
2019-04-14T09:30:50.886Z,22.23
2019-04-14T09:33:54.350Z,21.53
2019-04-14T09:36:57.830Z,18.20
2019-04-14T09:40:01.278Z,20.10
2019-04-14T09:43:04.922Z,17.70
2019-04-14T09:46:08.378Z,17.17
2019-04-14T09:49:11.873Z,18.47
2019-04-14T09:52:15.313Z,22.10
2019-04-14T09:55:18.779Z,17.83
2019-04-14T09:58:22.221Z,16.83
2019-04-14T10:01:25.697Z,18.43
2019-04-14T10:04:29.158Z,21.53
2019-04-14T10:07:32.634Z,19.03
2019-04-14T10:10:36.146Z,19.70
2019-04-14T10:13:39.698Z,19.23
2019-04-14T10:16:43.142Z,19.60
2019-04-14T10:19:46.605Z,18.63
2019-04-14T10:22:50.051Z,18.77
2019-04-14T10:25:53.531Z,19.80
2019-04-14T10:28:56.977Z,20.40
2019-04-14T10:32:00.497Z,22.33
2019-04-14T10:35:05.017Z,19.90
2019-04-14T10:38:08.502Z,19.13
2019-04-14T10:41:12.003Z,18.33
2019-04-14T10:44:15.482Z,20.57
2019-04-14T10:47:18.922Z,23.67
2019-04-14T10:50:30.609Z,21.23
2019-04-14T10:53:27.558Z,23.37
2019-04-14T10:56:31.034Z,23.03
2019-04-14T10:59:34.474Z,24.10
2019-04-14T11:02:37.950Z,24.53
2019-04-14T11:05:43.031Z,23.77
2019-04-14T11:08:46.489Z,26.27
2019-04-14T11:11:49.925Z,22.93
2019-04-14T11:14:53.395Z,25.90
2019-04-14T11:17:56.844Z,22.87
2019-04-14T11:21:00.313Z,22.07
2019-04-14T11:24:03.748Z,27.93
2019-04-14T11:27:07.217Z,25.07
2019-04-14T11:30:12.698Z,25.60
2019-04-14T11:33:29.714Z,25.07
2019-04-14T11:36:34.838Z,25.20
2019-04-14T11:39:38.269Z,23.90
2019-04-14T11:42:51.762Z,24.83
2019-04-14T11:45:46.993Z,23.20
2019-04-14T11:48:50.462Z,24.63
2019-04-14T11:51:55.483Z,25.53
2019-04-14T11:54:59.177Z,24.47
2019-04-14T11:58:02.617Z,23.17
2019-04-14T12:01:07.728Z,22.03
2019-04-14T12:04:29.387Z,22.87
2019-04-14T12:07:34.490Z,25.37
2019-04-14T12:10:37.941Z,24.77
2019-04-14T12:13:41.401Z,24.67
2019-04-14T12:16:44.854Z,22.70
2019-04-14T12:19:48.325Z,25.00
2019-04-14T12:22:51.761Z,22.13
2019-04-14T12:26:04.673Z,24.43
2019-04-14T12:29:03.056Z,23.50
2019-04-14T12:32:06.910Z,20.27
2019-04-14T12:35:11.290Z,20.23
2019-04-14T12:38:14.759Z,17.83
2019-04-14T12:41:19.870Z,21.77
2019-04-14T12:44:30.914Z,18.07
2019-04-14T12:47:52.194Z,19.40
2019-04-14T12:50:57.269Z,17.37
2019-04-14T12:54:00.744Z,15.77
2019-04-14T12:57:04.261Z,18.27
2019-04-14T13:00:09.694Z,18.67
2019-04-14T13:03:13.130Z,18.80
2019-04-14T13:06:16.611Z,15.93
2019-04-14T13:09:20.045Z,16.87
2019-04-14T13:12:23.518Z,14.47
2019-04-14T13:15:37.561Z,15.10
2019-04-14T13:18:41.023Z,16.47
2019-04-14T13:21:44.494Z,14.80
2019-04-14T13:24:47.929Z,13.27
2019-04-14T13:27:51.675Z,12.10
2019-04-14T13:30:55.105Z,12.80
2019-04-14T13:33:58.569Z,13.30
2019-04-14T13:37:02.037Z,11.53
2019-04-14T13:40:06.411Z,11.80
2019-04-14T13:43:10.538Z,9.63
2019-04-14T13:46:13.982Z,11.63
2019-04-14T13:49:18.296Z,12.80
2019-04-14T13:52:21.735Z,11.57
2019-04-14T13:55:25.205Z,11.70
2019-04-14T13:58:28.638Z,10.23
2019-04-14T14:01:32.094Z,8.63
2019-04-14T14:04:35.554Z,9.43
2019-04-14T14:07:38.982Z,8.87
2019-04-14T14:10:42.442Z,8.70
2019-04-14T14:13:47.527Z,9.83
2019-04-14T14:17:09.293Z,12.20
2019-04-14T14:20:23.034Z,8.13
2019-04-14T14:23:30.909Z,7.60
2019-04-14T14:26:45.206Z,7.57
2019-04-14T14:29:48.670Z,7.70
2019-04-14T14:32:52.106Z,7.33
2019-04-14T14:35:55.569Z,7.00
2019-04-14T14:38:58.997Z,7.60
2019-04-14T14:42:02.470Z,6.87
2019-04-14T14:45:17.645Z,5.93
2019-04-14T14:48:25.669Z,5.90
2019-04-14T14:51:45.742Z,5.43
2019-04-14T14:54:49.185Z,6.33
2019-04-14T14:57:52.621Z,6.40
2019-04-14T15:00:56.287Z,5.27
2019-04-14T15:03:59.723Z,5.97
2019-04-14T15:07:03.296Z,5.50
2019-04-14T15:10:07.626Z,4.33
2019-04-14T15:13:11.090Z,6.10
2019-04-14T15:16:14.525Z,5.13
2019-04-14T15:19:17.994Z,5.10
2019-04-14T15:22:21.435Z,4.73
2019-04-14T15:25:24.897Z,8.67
2019-04-14T15:28:28.405Z,4.40
2019-04-14T15:31:31.869Z,4.17
2019-04-14T15:34:35.305Z,4.67
2019-04-14T15:37:38.786Z,5.07
2019-04-14T15:40:42.221Z,4.20
2019-04-14T15:43:45.681Z,5.33
2019-04-14T15:46:49.122Z,4.97
2019-04-14T15:49:52.593Z,4.67
2019-04-14T15:52:56.128Z,4.80
2019-04-14T15:56:00.100Z,4.77
2019-04-14T15:59:14.326Z,5.37
2019-04-14T16:02:36.051Z,4.87
2019-04-14T16:05:41.423Z,5.00
2019-04-14T16:08:46.804Z,4.83
2019-04-14T16:11:54.958Z,4.93
2019-04-14T16:15:00.304Z,4.90
2019-04-14T16:18:21.714Z,5.30
2019-04-14T16:21:25.197Z,5.77
2019-04-14T16:24:28.662Z,5.83
2019-04-14T16:27:50.394Z,5.27
2019-04-14T16:30:58.413Z,5.93
2019-04-14T16:34:03.519Z,5.90
2019-04-14T16:37:06.949Z,5.43
2019-04-14T16:40:11.257Z,5.70
2019-04-14T16:43:14.689Z,7.67
2019-04-14T16:46:18.159Z,6.37
2019-04-14T16:49:21.595Z,6.30
2019-04-14T16:52:26.697Z,7.13
2019-04-14T16:55:37.718Z,7.20
2019-04-14T16:58:42.833Z,7.97
2019-04-14T17:01:46.923Z,7.43
2019-04-14T17:04:50.393Z,7.33
2019-04-14T17:07:53.899Z,8.83
2019-04-14T17:10:57.442Z,9.10
2019-04-14T17:14:08.399Z,8.17
2019-04-14T17:17:19.301Z,8.07
2019-04-14T17:20:24.385Z,9.47
2019-04-14T17:23:45.981Z,9.87
2019-04-14T17:27:00.110Z,7.43
2019-04-14T17:30:06.663Z,6.83
2019-04-14T17:33:14.431Z,7.70
2019-04-14T17:36:19.527Z,7.40
2019-04-14T17:39:27.615Z,8.17
2019-04-14T17:42:48.845Z,8.63
2019-04-14T17:46:02.962Z,8.57
2019-04-14T17:49:17.168Z,8.87
2019-04-14T17:52:37.114Z,8.87
2019-04-14T17:55:50.077Z,9.43
2019-04-14T17:58:57.937Z,8.33
2019-04-14T18:02:03.030Z,10.17
2019-04-14T18:05:08.526Z,10.23
2019-04-14T18:08:13.633Z,9.73
2019-04-14T18:11:34.899Z,10.90
2019-04-14T18:14:40.001Z,11.03
2019-04-14T18:17:45.078Z,12.27
2019-04-14T18:20:50.183Z,10.63
2019-04-14T18:23:53.621Z,11.70
2019-04-14T18:26:57.077Z,10.27
2019-04-14T18:30:20.285Z,11.77
2019-04-14T18:33:34.314Z,10.33
2019-04-14T18:36:39.422Z,11.47
2019-04-14T18:40:01.263Z,14.17
2019-04-14T18:43:09.510Z,14.00
2019-04-14T18:46:29.597Z,13.90
2019-04-14T18:49:43.908Z,14.03
2019-04-14T18:52:54.818Z,12.70
2019-04-14T18:55:59.889Z,15.43
2019-04-14T18:59:21.250Z,15.67
2019-04-14T19:02:24.689Z,14.43
2019-04-14T19:05:28.160Z,15.93
2019-04-14T19:08:31.597Z,14.03
2019-04-14T19:11:36.710Z,16.47
2019-04-14T19:14:41.442Z,15.30
2019-04-14T19:17:55.793Z,14.67
2019-04-14T19:21:00.902Z,15.03
2019-04-14T19:24:04.369Z,14.37
2019-04-14T19:27:07.816Z,16.53
2019-04-14T19:30:11.710Z,15.13
2019-04-14T19:33:15.181Z,15.83
2019-04-14T19:36:18.645Z,16.93
2019-04-14T19:39:22.109Z,17.47
2019-04-14T19:42:25.553Z,15.40
2019-04-14T19:45:29.017Z,18.03
2019-04-14T19:48:32.461Z,13.77
2019-04-14T19:51:35.971Z,16.30
2019-04-14T19:54:39.418Z,16.33
2019-04-14T19:57:42.880Z,15.47
2019-04-14T20:00:46.350Z,16.50
2019-04-14T20:03:49.793Z,20.50
2019-04-14T20:06:53.254Z,16.13
2019-04-14T20:09:56.726Z,18.20
2019-04-14T20:13:00.163Z,18.27
2019-04-14T20:16:20.354Z,17.40
2019-04-14T20:19:28.030Z,17.73
2019-04-14T20:22:42.214Z,18.47
2019-04-14T20:26:03.785Z,20.87
2019-04-14T20:29:08.949Z,21.97
2019-04-14T20:32:17.195Z,18.30
2019-04-14T20:35:20.654Z,18.17
2019-04-14T20:38:24.093Z,21.37
2019-04-14T20:41:27.581Z,23.27
2019-04-14T20:44:31.027Z,22.17
2019-04-14T20:47:34.489Z,20.03
2019-04-14T20:50:37.958Z,18.23
2019-04-14T20:53:41.389Z,18.70
2019-04-14T20:56:44.865Z,18.70
2019-04-14T20:59:48.334Z,20.93
2019-04-14T21:03:08.498Z,22.00
2019-04-14T21:06:38.830Z,23.70
2019-04-14T21:09:43.986Z,23.73
2019-04-14T21:12:49.090Z,20.63
2019-04-14T21:15:54.180Z,20.47
2019-04-14T21:18:59.293Z,19.47
2019-04-14T21:22:07.131Z,22.00
2019-04-14T21:25:12.221Z,20.60
2019-04-14T21:28:22.765Z,21.90
2019-04-14T21:31:27.917Z,23.87
2019-04-14T21:34:33.034Z,23.57
2019-04-14T21:37:40.830Z,22.60
2019-04-14T21:40:46.145Z,23.40
2019-04-14T21:43:49.593Z,28.20
2019-04-14T21:46:53.143Z,29.83
2019-04-14T21:49:56.802Z,25.77
2019-04-14T21:53:00.257Z,26.00
2019-04-14T21:56:13.227Z,25.60
2019-04-14T21:59:10.602Z,24.63
2019-04-14T22:02:21.415Z,25.47
2019-04-14T22:05:44.736Z,25.77
2019-04-14T22:08:50.111Z,29.33
2019-04-14T22:11:53.796Z,27.33
2019-04-14T22:14:57.237Z,32.30
2019-04-14T22:18:00.778Z,28.40
2019-04-14T22:21:04.385Z,31.00
2019-04-14T22:24:07.857Z,29.80
2019-04-14T22:27:11.297Z,32.07
2019-04-14T22:30:15.074Z,32.33
2019-04-14T22:33:18.517Z,32.50
2019-04-14T22:36:21.982Z,31.73
2019-04-14T22:39:25.465Z,31.20
2019-04-14T22:42:28.898Z,32.03
2019-04-14T22:45:32.445Z,33.30
2019-04-14T22:48:35.910Z,34.87
2019-04-14T22:51:39.342Z,32.93
2019-04-14T22:54:42.834Z,33.80
2019-04-14T22:57:46.338Z,33.30
2019-04-14T23:00:51.437Z,27.87
2019-04-14T23:04:05.422Z,23.00
2019-04-14T23:07:13.421Z,27.87
2019-04-14T23:10:18.517Z,28.87
2019-04-14T23:13:32.533Z,30.07
2019-04-14T23:16:37.626Z,32.70
2019-04-14T23:19:59.177Z,32.53
2019-04-14T23:23:04.288Z,33.40
2019-04-14T23:26:07.746Z,36.17
2019-04-14T23:29:11.226Z,31.27
2019-04-14T23:32:14.685Z,32.47
2019-04-14T23:35:18.146Z,32.57
2019-04-14T23:38:21.594Z,35.73
2019-04-14T23:41:25.053Z,35.53
2019-04-14T23:44:28.502Z,33.17
2019-04-14T23:47:31.973Z,35.27
2019-04-14T23:50:35.437Z,32.60
2019-04-14T23:53:38.895Z,34.47
2019-04-14T23:56:42.358Z,32.67
2019-04-14T23:59:45.822Z,34.90
